sensor_id;sensor_type;location;lat;lon;timestamp;P1;durP1;ratioP1;P2;durP2;ratioP2
8683;SDS011;4379;59.744;18.206;2023-05-10T00:01:14;3.90;;;3.70;;
8683;SDS011;4379;59.744;18.206;2023-05-10T00:03:42;3.73;;;3.53;;
8683;SDS011;4379;59.744;18.206;2023-05-10T00:06:10;4.27;;;3.53;;
8683;SDS011;4379;59.744;18.206;2023-05-10T00:08:37;4.23;;;3.80;;
8683;SDS011;4379;59.744;18.206;2023-05-10T00:11:05;4.60;;;4.30;;
8683;SDS011;4379;59.744;18.206;2023-05-10T00:13:32;4.80;;;3.70;;
8683;SDS011;4379;59.744;18.206;2023-05-10T00:16:00;3.80;;;3.60;;
8683;SDS011;4379;59.744;18.206;2023-05-10T00:18:28;6.07;;;4.27;;
8683;SDS011;4379;59.744;18.206;2023-05-10T00:20:57;4.37;;;4.00;;
8683;SDS011;4379;59.744;18.206;2023-05-10T00:23:28;4.10;;;3.90;;
8683;SDS011;4379;59.744;18.206;2023-05-10T00:25:56;4.40;;;4.10;;
8683;SDS011;4379;59.744;18.206;2023-05-10T00:28:30;4.57;;;4.27;;
8683;SDS011;4379;59.744;18.206;2023-05-10T00:30:58;4.70;;;4.30;;
8683;SDS011;4379;59.744;18.206;2023-05-10T00:33:25;4.17;;;3.77;;
8683;SDS011;4379;59.744;18.206;2023-05-10T00:35:53;4.70;;;4.20;;
8683;SDS011;4379;59.744;18.206;2023-05-10T00:38:21;4.07;;;3.80;;
8683;SDS011;4379;59.744;18.206;2023-05-10T00:40:48;7.63;;;4.20;;
8683;SDS011;4379;59.744;18.206;2023-05-10T00:43:16;4.37;;;4.07;;
8683;SDS011;4379;59.744;18.206;2023-05-10T00:45:44;4.73;;;4.43;;
8683;SDS011;4379;59.744;18.206;2023-05-10T00:48:14;4.43;;;4.13;;
8683;SDS011;4379;59.744;18.206;2023-05-10T00:51:01;5.13;;;4.37;;
8683;SDS011;4379;59.744;18.206;2023-05-10T00:53:30;4.23;;;3.83;;
8683;SDS011;4379;59.744;18.206;2023-05-10T00:55:59;4.57;;;4.17;;
8683;SDS011;4379;59.744;18.206;2023-05-10T00:58:28;5.50;;;4.10;;
8683;SDS011;4379;59.744;18.206;2023-05-10T01:00:57;4.60;;;4.20;;
8683;SDS011;4379;59.744;18.206;2023-05-10T01:03:27;4.53;;;4.13;;
8683;SDS011;4379;59.744;18.206;2023-05-10T01:05:55;4.37;;;3.97;;
8683;SDS011;4379;59.744;18.206;2023-05-10T01:08:23;7.47;;;4.17;;
8683;SDS011;4379;59.744;18.206;2023-05-10T01:10:52;4.60;;;4.10;;
8683;SDS011;4379;59.744;18.206;2023-05-10T01:13:29;4.60;;;4.20;;
8683;SDS011;4379;59.744;18.206;2023-05-10T01:15:58;4.63;;;4.00;;
8683;SDS011;4379;59.744;18.206;2023-05-10T01:18:29;4.80;;;4.40;;
8683;SDS011;4379;59.744;18.206;2023-05-10T01:21:48;4.43;;;4.07;;
8683;SDS011;4379;59.744;18.206;2023-05-10T01:24:10;4.17;;;3.90;;
8683;SDS011;4379;59.744;18.206;2023-05-10T01:37:59;5.07;;;4.20;;
8683;SDS011;4379;59.744;18.206;2023-05-10T01:43:28;4.53;;;4.30;;
8683;SDS011;4379;59.744;18.206;2023-05-10T01:46:10;4.20;;;4.00;;
8683;SDS011;4379;59.744;18.206;2023-05-10T01:48:47;4.87;;;4.23;;
8683;SDS011;4379;59.744;18.206;2023-05-10T01:51:19;4.30;;;4.00;;
8683;SDS011;4379;59.744;18.206;2023-05-10T01:53:51;4.50;;;4.20;;
8683;SDS011;4379;59.744;18.206;2023-05-10T01:56:26;6.40;;;4.30;;
8683;SDS011;4379;59.744;18.206;2023-05-10T01:58:56;4.47;;;4.17;;
8683;SDS011;4379;59.744;18.206;2023-05-10T02:01:26;4.43;;;4.13;;
8683;SDS011;4379;59.744;18.206;2023-05-10T02:03:55;4.77;;;4.27;;
8683;SDS011;4379;59.744;18.206;2023-05-10T02:06:24;4.50;;;4.30;;
8683;SDS011;4379;59.744;18.206;2023-05-10T02:08:52;5.00;;;4.50;;
8683;SDS011;4379;59.744;18.206;2023-05-10T02:11:20;4.63;;;4.20;;
8683;SDS011;4379;59.744;18.206;2023-05-10T02:13:50;5.13;;;4.80;;
8683;SDS011;4379;59.744;18.206;2023-05-10T02:16:19;4.40;;;4.10;;
8683;SDS011;4379;59.744;18.206;2023-05-10T02:18:52;4.80;;;4.50;;
8683;SDS011;4379;59.744;18.206;2023-05-10T02:21:20;4.50;;;4.20;;
8683;SDS011;4379;59.744;18.206;2023-05-10T02:23:56;4.77;;;3.60;;
8683;SDS011;4379;59.744;18.206;2023-05-10T02:26:25;4.50;;;4.10;;
8683;SDS011;4379;59.744;18.206;2023-05-10T02:28:53;6.20;;;4.43;;
8683;SDS011;4379;59.744;18.206;2023-05-10T02:31:23;5.20;;;4.90;;
8683;SDS011;4379;59.744;18.206;2023-05-10T02:33:52;4.90;;;4.50;;
8683;SDS011;4379;59.744;18.206;2023-05-10T02:36:21;5.13;;;4.73;;
8683;SDS011;4379;59.744;18.206;2023-05-10T02:38:50;4.50;;;4.20;;
8683;SDS011;4379;59.744;18.206;2023-05-10T02:41:20;5.00;;;4.53;;
8683;SDS011;4379;59.744;18.206;2023-05-10T02:43:50;4.37;;;3.93;;
8683;SDS011;4379;59.744;18.206;2023-05-10T02:46:19;4.53;;;4.23;;
8683;SDS011;4379;59.744;18.206;2023-05-10T02:48:46;4.90;;;4.47;;
8683;SDS011;4379;59.744;18.206;2023-05-10T02:51:14;3.97;;;3.77;;
8683;SDS011;4379;59.744;18.206;2023-05-10T02:53:45;4.50;;;4.07;;
8683;SDS011;4379;59.744;18.206;2023-05-10T02:56:34;4.90;;;4.50;;
8683;SDS011;4379;59.744;18.206;2023-05-10T02:59:06;4.57;;;4.17;;
8683;SDS011;4379;59.744;18.206;2023-05-10T03:01:34;4.20;;;3.97;;
8683;SDS011;4379;59.744;18.206;2023-05-10T03:04:02;3.80;;;3.60;;
8683;SDS011;4379;59.744;18.206;2023-05-10T03:06:30;4.27;;;4.07;;
8683;SDS011;4379;59.744;18.206;2023-05-10T03:08:58;4.60;;;4.13;;
8683;SDS011;4379;59.744;18.206;2023-05-10T03:14:07;3.57;;;3.40;;
8683;SDS011;4379;59.744;18.206;2023-05-10T03:19:57;3.57;;;3.40;;
8683;SDS011;4379;59.744;18.206;2023-05-10T03:22:37;4.43;;;3.73;;
8683;SDS011;4379;59.744;18.206;2023-05-10T03:25:07;3.80;;;3.57;;
8683;SDS011;4379;59.744;18.206;2023-05-10T03:27:39;4.40;;;4.10;;
8683;SDS011;4379;59.744;18.206;2023-05-10T03:30:28;4.00;;;3.60;;
8683;SDS011;4379;59.744;18.206;2023-05-10T03:33:20;3.93;;;3.63;;
8683;SDS011;4379;59.744;18.206;2023-05-10T03:35:47;4.07;;;3.87;;
8683;SDS011;4379;59.744;18.206;2023-05-10T03:38:15;4.00;;;3.80;;
8683;SDS011;4379;59.744;18.206;2023-05-10T03:40:45;3.37;;;3.23;;
8683;SDS011;4379;59.744;18.206;2023-05-10T03:43:13;4.47;;;3.83;;
8683;SDS011;4379;59.744;18.206;2023-05-10T03:45:40;4.70;;;4.40;;
8683;SDS011;4379;59.744;18.206;2023-05-10T03:48:07;4.40;;;4.00;;
8683;SDS011;4379;59.744;18.206;2023-05-10T03:50:35;4.87;;;4.57;;
8683;SDS011;4379;59.744;18.206;2023-05-10T03:53:02;4.37;;;4.17;;
8683;SDS011;4379;59.744;18.206;2023-05-10T03:55:35;4.03;;;3.73;;
8683;SDS011;4379;59.744;18.206;2023-05-10T03:58:03;3.80;;;3.50;;
8683;SDS011;4379;59.744;18.206;2023-05-10T04:00:33;3.27;;;3.07;;
8683;SDS011;4379;59.744;18.206;2023-05-10T04:03:01;3.97;;;3.63;;
8683;SDS011;4379;59.744;18.206;2023-05-10T04:05:29;3.67;;;3.30;;
8683;SDS011;4379;59.744;18.206;2023-05-10T04:07:59;3.60;;;3.30;;
8683;SDS011;4379;59.744;18.206;2023-05-10T04:10:27;4.07;;;3.80;;
8683;SDS011;4379;59.744;18.206;2023-05-10T04:13:10;4.20;;;3.90;;
8683;SDS011;4379;59.744;18.206;2023-05-10T04:15:40;3.60;;;3.30;;
8683;SDS011;4379;59.744;18.206;2023-05-10T04:18:16;4.87;;;3.90;;
8683;SDS011;4379;59.744;18.206;2023-05-10T04:20:44;4.63;;;3.53;;
8683;SDS011;4379;59.744;18.206;2023-05-10T04:23:11;3.77;;;3.47;;
8683;SDS011;4379;59.744;18.206;2023-05-10T04:25:41;3.73;;;3.40;;
8683;SDS011;4379;59.744;18.206;2023-05-10T04:28:08;3.07;;;2.87;;
8683;SDS011;4379;59.744;18.206;2023-05-10T04:30:36;3.50;;;3.30;;
8683;SDS011;4379;59.744;18.206;2023-05-10T04:33:03;3.27;;;3.07;;
8683;SDS011;4379;59.744;18.206;2023-05-10T04:35:31;3.53;;;3.23;;
8683;SDS011;4379;59.744;18.206;2023-05-10T04:37:59;3.20;;;3.10;;
8683;SDS011;4379;59.744;18.206;2023-05-10T04:40:27;3.20;;;3.00;;
8683;SDS011;4379;59.744;18.206;2023-05-10T04:42:55;3.47;;;3.03;;
8683;SDS011;4379;59.744;18.206;2023-05-10T04:45:22;3.30;;;3.10;;
8683;SDS011;4379;59.744;18.206;2023-05-10T04:47:49;3.60;;;3.30;;
8683;SDS011;4379;59.744;18.206;2023-05-10T04:50:17;3.50;;;3.30;;
8683;SDS011;4379;59.744;18.206;2023-05-10T04:52:45;3.80;;;3.50;;
8683;SDS011;4379;59.744;18.206;2023-05-10T04:55:12;3.37;;;3.10;;
8683;SDS011;4379;59.744;18.206;2023-05-10T04:57:40;3.40;;;3.10;;
8683;SDS011;4379;59.744;18.206;2023-05-10T05:00:08;3.45;;;3.15;;
8683;SDS011;4379;59.744;18.206;2023-05-10T05:02:45;3.20;;;3.00;;
8683;SDS011;4379;59.744;18.206;2023-05-10T05:05:14;3.53;;;3.30;;
8683;SDS011;4379;59.744;18.206;2023-05-10T05:07:43;3.13;;;2.92;;
8683;SDS011;4379;59.744;18.206;2023-05-10T05:10:12;3.25;;;3.00;;
8683;SDS011;4379;59.744;18.206;2023-05-10T05:12:40;3.40;;;3.10;;
8683;SDS011;4379;59.744;18.206;2023-05-10T05:15:08;3.35;;;3.05;;
8683;SDS011;4379;59.744;18.206;2023-05-10T05:17:36;2.72;;;2.60;;
8683;SDS011;4379;59.744;18.206;2023-05-10T05:20:04;3.17;;;2.97;;
8683;SDS011;4379;59.744;18.206;2023-05-10T05:22:33;2.95;;;2.63;;
8683;SDS011;4379;59.744;18.206;2023-05-10T05:25:02;3.50;;;3.22;;
8683;SDS011;4379;59.744;18.206;2023-05-10T05:27:30;2.65;;;2.50;;
8683;SDS011;4379;59.744;18.206;2023-05-10T05:29:58;3.60;;;3.30;;
8683;SDS011;4379;59.744;18.206;2023-05-10T05:32:26;3.15;;;2.80;;
8683;SDS011;4379;59.744;18.206;2023-05-10T05:34:54;3.08;;;2.88;;
8683;SDS011;4379;59.744;18.206;2023-05-10T05:37:22;2.97;;;2.78;;
8683;SDS011;4379;59.744;18.206;2023-05-10T05:39:51;2.70;;;2.60;;
8683;SDS011;4379;59.744;18.206;2023-05-10T05:42:19;2.58;;;2.47;;
8683;SDS011;4379;59.744;18.206;2023-05-10T05:44:46;3.20;;;3.00;;
8683;SDS011;4379;59.744;18.206;2023-05-10T05:47:14;3.15;;;2.85;;
8683;SDS011;4379;59.744;18.206;2023-05-10T05:49:41;3.47;;;3.10;;
8683;SDS011;4379;59.744;18.206;2023-05-10T05:52:09;4.13;;;3.28;;
8683;SDS011;4379;59.744;18.206;2023-05-10T05:54:36;2.78;;;2.65;;
8683;SDS011;4379;59.744;18.206;2023-05-10T05:57:06;3.50;;;3.20;;
8683;SDS011;4379;59.744;18.206;2023-05-10T05:59:34;3.00;;;2.80;;
8683;SDS011;4379;59.744;18.206;2023-05-10T06:02:21;5.40;;;3.22;;
8683;SDS011;4379;59.744;18.206;2023-05-10T06:04:49;3.10;;;2.97;;
8683;SDS011;4379;59.744;18.206;2023-05-10T06:07:17;3.08;;;2.88;;
8683;SDS011;4379;59.744;18.206;2023-05-10T06:09:45;3.55;;;3.35;;
8683;SDS011;4379;59.744;18.206;2023-05-10T06:12:12;3.15;;;2.92;;
8683;SDS011;4379;59.744;18.206;2023-05-10T06:14:40;3.22;;;3.00;;
8683;SDS011;4379;59.744;18.206;2023-05-10T06:17:11;5.60;;;3.40;;
8683;SDS011;4379;59.744;18.206;2023-05-10T06:19:39;3.33;;;3.13;;
8683;SDS011;4379;59.744;18.206;2023-05-10T06:22:08;3.20;;;3.10;;
8683;SDS011;4379;59.744;18.206;2023-05-10T06:24:36;3.08;;;2.78;;
8683;SDS011;4379;59.744;18.206;2023-05-10T06:27:04;3.08;;;2.88;;
8683;SDS011;4379;59.744;18.206;2023-05-10T06:29:32;3.42;;;3.13;;
8683;SDS011;4379;59.744;18.206;2023-05-10T06:32:00;3.08;;;2.83;;
8683;SDS011;4379;59.744;18.206;2023-05-10T06:34:38;3.15;;;2.85;;
8683;SDS011;4379;59.744;18.206;2023-05-10T06:37:22;3.65;;;2.95;;
8683;SDS011;4379;59.744;18.206;2023-05-10T06:39:50;3.22;;;2.92;;
8683;SDS011;4379;59.744;18.206;2023-05-10T06:42:17;5.03;;;2.97;;
8683;SDS011;4379;59.744;18.206;2023-05-10T06:44:45;2.80;;;2.60;;
8683;SDS011;4379;59.744;18.206;2023-05-10T06:47:13;3.15;;;2.90;;
8683;SDS011;4379;59.744;18.206;2023-05-10T06:49:40;3.13;;;2.92;;
8683;SDS011;4379;59.744;18.206;2023-05-10T06:52:10;2.90;;;2.65;;
8683;SDS011;4379;59.744;18.206;2023-05-10T06:54:43;3.22;;;3.10;;
8683;SDS011;4379;59.744;18.206;2023-05-10T06:57:11;3.05;;;2.80;;
8683;SDS011;4379;59.744;18.206;2023-05-10T06:59:56;2.97;;;2.78;;
8683;SDS011;4379;59.744;18.206;2023-05-10T07:02:24;4.47;;;2.97;;
8683;SDS011;4379;59.744;18.206;2023-05-10T07:04:52;2.83;;;2.70;;
8683;SDS011;4379;59.744;18.206;2023-05-10T07:07:21;3.40;;;2.92;;
8683;SDS011;4379;59.744;18.206;2023-05-10T07:09:49;3.17;;;2.88;;
8683;SDS011;4379;59.744;18.206;2023-05-10T07:12:17;2.78;;;2.60;;
8683;SDS011;4379;59.744;18.206;2023-05-10T07:14:44;3.88;;;2.90;;
8683;SDS011;4379;59.744;18.206;2023-05-10T07:17:13;4.28;;;3.20;;
8683;SDS011;4379;59.744;18.206;2023-05-10T07:19:41;5.10;;;3.20;;
8683;SDS011;4379;59.744;18.206;2023-05-10T07:22:09;3.05;;;2.83;;
8683;SDS011;4379;59.744;18.206;2023-05-10T07:24:36;4.25;;;3.03;;
8683;SDS011;4379;59.744;18.206;2023-05-10T07:27:05;3.22;;;3.00;;
8683;SDS011;4379;59.744;18.206;2023-05-10T07:29:32;3.00;;;2.80;;
8683;SDS011;4379;59.744;18.206;2023-05-10T07:32:00;5.03;;;4.53;;
8683;SDS011;4379;59.744;18.206;2023-05-10T07:34:28;3.30;;;3.00;;
8683;SDS011;4379;59.744;18.206;2023-05-10T07:36:59;3.50;;;3.20;;
8683;SDS011;4379;59.744;18.206;2023-05-10T07:39:27;5.68;;;4.07;;
8683;SDS011;4379;59.744;18.206;2023-05-10T07:41:55;3.63;;;3.33;;
8683;SDS011;4379;59.744;18.206;2023-05-10T07:44:23;3.83;;;3.08;;
8683;SDS011;4379;59.744;18.206;2023-05-10T07:46:50;5.22;;;4.82;;
8683;SDS011;4379;59.744;18.206;2023-05-10T07:49:19;4.80;;;3.33;;
8683;SDS011;4379;59.744;18.206;2023-05-10T07:51:46;5.60;;;4.97;;
8683;SDS011;4379;59.744;18.206;2023-05-10T07:54:17;3.33;;;3.13;;
8683;SDS011;4379;59.744;18.206;2023-05-10T07:56:45;2.95;;;2.83;;
8683;SDS011;4379;59.744;18.206;2023-05-10T07:59:17;4.95;;;3.08;;
8683;SDS011;4379;59.744;18.206;2023-05-10T08:01:47;3.85;;;3.15;;
8683;SDS011;4379;59.744;18.206;2023-05-10T08:04:16;3.17;;;2.88;;
8683;SDS011;4379;59.744;18.206;2023-05-10T08:06:44;2.90;;;2.70;;
8683;SDS011;4379;59.744;18.206;2023-05-10T08:09:11;2.80;;;2.70;;
8683;SDS011;4379;59.744;18.206;2023-05-10T08:11:40;2.97;;;2.83;;
8683;SDS011;4379;59.744;18.206;2023-05-10T08:14:07;2.80;;;2.60;;
8683;SDS011;4379;59.744;18.206;2023-05-10T08:16:35;4.18;;;3.10;;
8683;SDS011;4379;59.744;18.206;2023-05-10T08:19:02;3.47;;;3.28;;
8683;SDS011;4379;59.744;18.206;2023-05-10T08:21:30;3.50;;;3.28;;
8683;SDS011;4379;59.744;18.206;2023-05-10T08:23:58;3.45;;;2.97;;
8683;SDS011;4379;59.744;18.206;2023-05-10T08:26:25;4.07;;;2.88;;
8683;SDS011;4379;59.744;18.206;2023-05-10T08:28:55;3.20;;;2.95;;
8683;SDS011;4379;59.744;18.206;2023-05-10T08:31:23;3.28;;;2.97;;
8683;SDS011;4379;59.744;18.206;2023-05-10T08:33:51;3.13;;;2.92;;
8683;SDS011;4379;59.744;18.206;2023-05-10T08:36:19;4.45;;;3.03;;
8683;SDS011;4379;59.744;18.206;2023-05-10T08:38:51;3.45;;;3.00;;
8683;SDS011;4379;59.744;18.206;2023-05-10T08:41:20;4.13;;;3.28;;
8683;SDS011;4379;59.744;18.206;2023-05-10T08:43:53;3.72;;;3.50;;
8683;SDS011;4379;59.744;18.206;2023-05-10T08:46:21;4.00;;;3.65;;
8683;SDS011;4379;59.744;18.206;2023-05-10T08:48:50;5.63;;;3.58;;
8683;SDS011;4379;59.744;18.206;2023-05-10T08:51:21;3.55;;;3.30;;
8683;SDS011;4379;59.744;18.206;2023-05-10T08:53:52;3.40;;;3.20;;
8683;SDS011;4379;59.744;18.206;2023-05-10T08:56:20;3.30;;;3.10;;
8683;SDS011;4379;59.744;18.206;2023-05-10T08:59:00;3.60;;;3.30;;
8683;SDS011;4379;59.744;18.206;2023-05-10T09:01:28;3.78;;;3.47;;
8683;SDS011;4379;59.744;18.206;2023-05-10T09:03:58;3.70;;;3.40;;
8683;SDS011;4379;59.744;18.206;2023-05-10T09:06:26;3.60;;;3.22;;
8683;SDS011;4379;59.744;18.206;2023-05-10T09:08:55;3.38;;;3.08;;
8683;SDS011;4379;59.744;18.206;2023-05-10T09:11:24;3.65;;;3.08;;
8683;SDS011;4379;59.744;18.206;2023-05-10T09:13:52;3.63;;;3.35;;
8683;SDS011;4379;59.744;18.206;2023-05-10T09:16:20;3.70;;;3.50;;
8683;SDS011;4379;59.744;18.206;2023-05-10T09:18:48;3.70;;;3.35;;
8683;SDS011;4379;59.744;18.206;2023-05-10T09:21:16;3.50;;;3.30;;
8683;SDS011;4379;59.744;18.206;2023-05-10T09:23:48;4.13;;;3.40;;
8683;SDS011;4379;59.744;18.206;2023-05-10T09:26:16;4.03;;;3.50;;
8683;SDS011;4379;59.744;18.206;2023-05-10T09:28:52;5.93;;;3.35;;
8683;SDS011;4379;59.744;18.206;2023-05-10T09:31:23;6.63;;;3.60;;
8683;SDS011;4379;59.744;18.206;2023-05-10T09:33:53;3.88;;;3.58;;
8683;SDS011;4379;59.744;18.206;2023-05-10T09:36:24;3.67;;;3.42;;
8683;SDS011;4379;59.744;18.206;2023-05-10T09:38:52;3.40;;;3.10;;
8683;SDS011;4379;59.744;18.206;2023-05-10T09:41:22;3.03;;;2.85;;
8683;SDS011;4379;59.744;18.206;2023-05-10T09:43:55;3.33;;;3.10;;
8683;SDS011;4379;59.744;18.206;2023-05-10T09:46:23;3.25;;;2.97;;
8683;SDS011;4379;59.744;18.206;2023-05-10T09:48:51;3.38;;;3.17;;
8683;SDS011;4379;59.744;18.206;2023-05-10T09:51:22;3.67;;;3.28;;
8683;SDS011;4379;59.744;18.206;2023-05-10T09:54:13;3.95;;;3.65;;
8683;SDS011;4379;59.744;18.206;2023-05-10T09:56:42;4.63;;;3.13;;
8683;SDS011;4379;59.744;18.206;2023-05-10T09:59:10;3.28;;;3.08;;
8683;SDS011;4379;59.744;18.206;2023-05-10T10:01:39;3.65;;;3.00;;
8683;SDS011;4379;59.744;18.206;2023-05-10T10:04:08;3.38;;;3.13;;
8683;SDS011;4379;59.744;18.206;2023-05-10T10:07:00;3.60;;;3.30;;
8683;SDS011;4379;59.744;18.206;2023-05-10T10:09:30;11.82;;;3.85;;
8683;SDS011;4379;59.744;18.206;2023-05-10T10:12:03;2.90;;;2.80;;
8683;SDS011;4379;59.744;18.206;2023-05-10T10:14:33;3.50;;;3.20;;
8683;SDS011;4379;59.744;18.206;2023-05-10T10:17:02;3.60;;;3.10;;
8683;SDS011;4379;59.744;18.206;2023-05-10T10:19:34;2.92;;;2.72;;
8683;SDS011;4379;59.744;18.206;2023-05-10T10:22:04;6.28;;;3.40;;
8683;SDS011;4379;59.744;18.206;2023-05-10T10:24:33;3.03;;;2.83;;
8683;SDS011;4379;59.744;18.206;2023-05-10T10:30:12;3.10;;;2.80;;
8683;SDS011;4379;59.744;18.206;2023-05-10T10:35:46;3.30;;;3.00;;
8683;SDS011;4379;59.744;18.206;2023-05-10T10:38:14;3.08;;;2.88;;
8683;SDS011;4379;59.744;18.206;2023-05-10T10:40:47;2.95;;;2.85;;
8683;SDS011;4379;59.744;18.206;2023-05-10T10:43:21;3.03;;;2.45;;
8683;SDS011;4379;59.744;18.206;2023-05-10T10:46:12;3.25;;;2.92;;
8683;SDS011;4379;59.744;18.206;2023-05-10T10:48:41;3.35;;;2.80;;
8683;SDS011;4379;59.744;18.206;2023-05-10T10:51:15;2.70;;;2.60;;
8683;SDS011;4379;59.744;18.206;2023-05-10T10:53:43;2.97;;;2.67;;
8683;SDS011;4379;59.744;18.206;2023-05-10T10:56:11;2.58;;;2.47;;
8683;SDS011;4379;59.744;18.206;2023-05-10T10:58:42;3.47;;;3.17;;
8683;SDS011;4379;59.744;18.206;2023-05-10T11:01:20;3.00;;;2.70;;
8683;SDS011;4379;59.744;18.206;2023-05-10T11:06:35;2.95;;;2.63;;
8683;SDS011;4379;59.744;18.206;2023-05-10T11:09:07;3.53;;;2.58;;
8683;SDS011;4379;59.744;18.206;2023-05-10T11:12:10;3.08;;;2.50;;
8683;SDS011;4379;59.744;18.206;2023-05-10T11:14:34;2.90;;;2.70;;
8683;SDS011;4379;59.744;18.206;2023-05-10T11:17:02;2.60;;;2.40;;
8683;SDS011;4379;59.744;18.206;2023-05-10T11:20:07;3.25;;;2.70;;
8683;SDS011;4379;59.744;18.206;2023-05-10T11:22:53;3.53;;;2.40;;
8683;SDS011;4379;59.744;18.206;2023-05-10T11:25:28;4.43;;;2.80;;
8683;SDS011;4379;59.744;18.206;2023-05-10T11:27:55;5.55;;;2.70;;
8683;SDS011;4379;59.744;18.206;2023-05-10T11:30:23;3.00;;;2.80;;
8683;SDS011;4379;59.744;18.206;2023-05-10T11:32:52;6.10;;;3.00;;
8683;SDS011;4379;59.744;18.206;2023-05-10T11:35:20;2.80;;;2.60;;
8683;SDS011;4379;59.744;18.206;2023-05-10T11:37:47;2.90;;;2.78;;
8683;SDS011;4379;59.744;18.206;2023-05-10T11:40:18;3.42;;;2.35;;
8683;SDS011;4379;59.744;18.206;2023-05-10T11:42:48;2.90;;;2.70;;
8683;SDS011;4379;59.744;18.206;2023-05-10T11:45:16;2.70;;;2.50;;
8683;SDS011;4379;59.744;18.206;2023-05-10T11:47:43;3.20;;;2.75;;
8683;SDS011;4379;59.744;18.206;2023-05-10T11:50:11;2.88;;;2.67;;
8683;SDS011;4379;59.744;18.206;2023-05-10T11:52:39;2.83;;;2.58;;
8683;SDS011;4379;59.744;18.206;2023-05-10T11:55:07;3.60;;;2.80;;
8683;SDS011;4379;59.744;18.206;2023-05-10T11:57:34;3.13;;;2.60;;
8683;SDS011;4379;59.744;18.206;2023-05-10T12:00:05;2.92;;;2.72;;
8683;SDS011;4379;59.744;18.206;2023-05-10T12:02:35;3.95;;;2.50;;
8683;SDS011;4379;59.744;18.206;2023-05-10T12:05:04;5.47;;;3.13;;
8683;SDS011;4379;59.744;18.206;2023-05-10T12:07:32;6.05;;;3.13;;
8683;SDS011;4379;59.744;18.206;2023-05-10T12:10:07;3.05;;;2.72;;
8683;SDS011;4379;59.744;18.206;2023-05-10T12:12:42;2.80;;;2.60;;
8683;SDS011;4379;59.744;18.206;2023-05-10T12:15:12;3.80;;;3.10;;
8683;SDS011;4379;59.744;18.206;2023-05-10T12:17:48;3.92;;;3.13;;
8683;SDS011;4379;59.744;18.206;2023-05-10T12:20:17;2.70;;;2.50;;
8683;SDS011;4379;59.744;18.206;2023-05-10T12:22:53;3.03;;;2.75;;
8683;SDS011;4379;59.744;18.206;2023-05-10T12:25:29;3.83;;;2.97;;
8683;SDS011;4379;59.744;18.206;2023-05-10T12:27:58;2.78;;;2.63;;
8683;SDS011;4379;59.744;18.206;2023-05-10T12:30:30;2.80;;;2.42;;
8683;SDS011;4379;59.744;18.206;2023-05-10T12:33:06;4.82;;;3.05;;
8683;SDS011;4379;59.744;18.206;2023-05-10T12:38:32;2.67;;;2.53;;
8683;SDS011;4379;59.744;18.206;2023-05-10T12:41:02;3.00;;;2.80;;
8683;SDS011;4379;59.744;18.206;2023-05-10T12:43:32;2.70;;;2.58;;
8683;SDS011;4379;59.744;18.206;2023-05-10T12:48:44;3.55;;;2.80;;
8683;SDS011;4379;59.744;18.206;2023-05-10T12:51:13;3.45;;;3.15;;
8683;SDS011;4379;59.744;18.206;2023-05-10T12:53:44;4.47;;;2.97;;
8683;SDS011;4379;59.744;18.206;2023-05-10T12:56:16;2.95;;;2.75;;
8683;SDS011;4379;59.744;18.206;2023-05-10T12:58:43;4.57;;;2.90;;
8683;SDS011;4379;59.744;18.206;2023-05-10T13:01:15;2.90;;;2.60;;
8683;SDS011;4379;59.744;18.206;2023-05-10T13:03:44;4.57;;;3.15;;
8683;SDS011;4379;59.744;18.206;2023-05-10T13:06:13;2.67;;;2.40;;
8683;SDS011;4379;59.744;18.206;2023-05-10T13:08:41;2.65;;;2.45;;
8683;SDS011;4379;59.744;18.206;2023-05-10T13:11:08;3.33;;;2.80;;
8683;SDS011;4379;59.744;18.206;2023-05-10T13:13:36;4.28;;;2.80;;
8683;SDS011;4379;59.744;18.206;2023-05-10T13:16:04;4.22;;;2.92;;
8683;SDS011;4379;59.744;18.206;2023-05-10T13:18:32;3.97;;;2.97;;
8683;SDS011;4379;59.744;18.206;2023-05-10T13:21:00;3.83;;;2.70;;
8683;SDS011;4379;59.744;18.206;2023-05-10T13:23:29;4.90;;;3.03;;
8683;SDS011;4379;59.744;18.206;2023-05-10T13:25:56;3.25;;;2.83;;
8683;SDS011;4379;59.744;18.206;2023-05-10T13:28:24;6.15;;;2.88;;
8683;SDS011;4379;59.744;18.206;2023-05-10T13:30:53;2.78;;;2.55;;
8683;SDS011;4379;59.744;18.206;2023-05-10T13:33:20;3.00;;;2.80;;
8683;SDS011;4379;59.744;18.206;2023-05-10T13:35:48;2.83;;;2.63;;
8683;SDS011;4379;59.744;18.206;2023-05-10T13:38:16;3.42;;;2.70;;
8683;SDS011;4379;59.744;18.206;2023-05-10T13:40:46;2.70;;;2.50;;
8683;SDS011;4379;59.744;18.206;2023-05-10T13:43:14;3.22;;;3.03;;
8683;SDS011;4379;59.744;18.206;2023-05-10T13:45:42;3.92;;;2.50;;
8683;SDS011;4379;59.744;18.206;2023-05-10T13:48:09;2.97;;;2.50;;
8683;SDS011;4379;59.744;18.206;2023-05-10T13:50:49;3.05;;;2.55;;
8683;SDS011;4379;59.744;18.206;2023-05-10T13:53:17;4.90;;;2.88;;
8683;SDS011;4379;59.744;18.206;2023-05-10T13:55:45;3.42;;;2.92;;
8683;SDS011;4379;59.744;18.206;2023-05-10T13:58:13;2.78;;;2.50;;
8683;SDS011;4379;59.744;18.206;2023-05-10T14:00:40;3.33;;;2.65;;
8683;SDS011;4379;59.744;18.206;2023-05-10T14:03:08;3.25;;;2.50;;
8683;SDS011;4379;59.744;18.206;2023-05-10T14:05:38;3.92;;;2.78;;
8683;SDS011;4379;59.744;18.206;2023-05-10T14:08:05;3.78;;;2.95;;
8683;SDS011;4379;59.744;18.206;2023-05-10T14:10:34;2.80;;;2.60;;
8683;SDS011;4379;59.744;18.206;2023-05-10T14:13:01;4.43;;;2.55;;
8683;SDS011;4379;59.744;18.206;2023-05-10T14:15:30;2.72;;;2.50;;
8683;SDS011;4379;59.744;18.206;2023-05-10T14:17:57;3.97;;;2.80;;
8683;SDS011;4379;59.744;18.206;2023-05-10T14:20:26;4.15;;;2.92;;
8683;SDS011;4379;59.744;18.206;2023-05-10T14:22:53;2.35;;;2.08;;
8683;SDS011;4379;59.744;18.206;2023-05-10T14:25:21;3.97;;;2.65;;
8683;SDS011;4379;59.744;18.206;2023-05-10T14:27:48;2.78;;;2.60;;
8683;SDS011;4379;59.744;18.206;2023-05-10T14:30:16;3.22;;;2.72;;
8683;SDS011;4379;59.744;18.206;2023-05-10T14:32:45;2.90;;;2.70;;
8683;SDS011;4379;59.744;18.206;2023-05-10T14:35:14;2.65;;;2.47;;
8683;SDS011;4379;59.744;18.206;2023-05-10T14:37:45;3.15;;;2.40;;
8683;SDS011;4379;59.744;18.206;2023-05-10T14:40:12;3.60;;;2.28;;
8683;SDS011;4379;59.744;18.206;2023-05-10T14:42:42;3.40;;;2.50;;
8683;SDS011;4379;59.744;18.206;2023-05-10T14:45:29;5.57;;;2.45;;
8683;SDS011;4379;59.744;18.206;2023-05-10T14:47:57;2.47;;;2.22;;
8683;SDS011;4379;59.744;18.206;2023-05-10T14:50:26;2.47;;;2.28;;
8683;SDS011;4379;59.744;18.206;2023-05-10T14:53:22;2.60;;;2.40;;
8683;SDS011;4379;59.744;18.206;2023-05-10T14:55:53;2.53;;;2.40;;
8683;SDS011;4379;59.744;18.206;2023-05-10T14:58:21;3.00;;;2.80;;
8683;SDS011;4379;59.744;18.206;2023-05-10T15:00:57;2.67;;;2.20;;
8683;SDS011;4379;59.744;18.206;2023-05-10T15:03:27;3.83;;;2.20;;
8683;SDS011;4379;59.744;18.206;2023-05-10T15:05:56;3.10;;;2.35;;
8683;SDS011;4379;59.744;18.206;2023-05-10T15:08:24;3.30;;;2.63;;
8683;SDS011;4379;59.744;18.206;2023-05-10T15:10:52;5.80;;;2.20;;
8683;SDS011;4379;59.744;18.206;2023-05-10T15:13:22;2.70;;;2.45;;
8683;SDS011;4379;59.744;18.206;2023-05-10T15:15:51;2.30;;;2.10;;
8683;SDS011;4379;59.744;18.206;2023-05-10T15:18:19;2.58;;;2.38;;
8683;SDS011;4379;59.744;18.206;2023-05-10T15:20:46;7.88;;;2.85;;
8683;SDS011;4379;59.744;18.206;2023-05-10T15:23:15;3.00;;;2.30;;
8683;SDS011;4379;59.744;18.206;2023-05-10T15:25:42;3.15;;;2.30;;
8683;SDS011;4379;59.744;18.206;2023-05-10T15:28:10;2.38;;;2.28;;
8683;SDS011;4379;59.744;18.206;2023-05-10T15:30:38;2.53;;;2.35;;
8683;SDS011;4379;59.744;18.206;2023-05-10T15:33:05;2.75;;;2.33;;
8683;SDS011;4379;59.744;18.206;2023-05-10T15:35:34;3.28;;;2.58;;
8683;SDS011;4379;59.744;18.206;2023-05-10T15:38:06;3.03;;;2.25;;
8683;SDS011;4379;59.744;18.206;2023-05-10T15:40:33;2.47;;;2.38;;
8683;SDS011;4379;59.744;18.206;2023-05-10T15:43:01;3.97;;;2.40;;
8683;SDS011;4379;59.744;18.206;2023-05-10T15:45:29;2.67;;;2.38;;
8683;SDS011;4379;59.744;18.206;2023-05-10T15:47:57;2.22;;;2.13;;
8683;SDS011;4379;59.744;18.206;2023-05-10T15:50:26;5.53;;;2.63;;
8683;SDS011;4379;59.744;18.206;2023-05-10T15:52:53;2.30;;;2.20;;